createdAt,value
2019-01-11T00:02:19.090Z,4.20
2019-01-11T00:04:48.599Z,3.90
2019-01-11T00:07:19.379Z,3.65
2019-01-11T00:09:49.189Z,3.58
2019-01-11T00:12:19.845Z,2.35
2019-01-11T00:14:49.367Z,2.10
2019-01-11T00:17:20.050Z,2.25
2019-01-11T00:19:49.563Z,2.50
2019-01-11T00:22:19.719Z,1.92
2019-01-11T00:24:50.064Z,2.30
2019-01-11T00:27:20.003Z,2.02
2019-01-11T00:29:49.666Z,1.60
2019-01-11T00:32:20.439Z,2.47
2019-01-11T00:34:49.998Z,1.90
2019-01-11T00:37:20.930Z,1.77
2019-01-11T00:39:50.415Z,1.85
2019-01-11T00:42:20.006Z,1.92
2019-01-11T00:44:49.431Z,2.02
2019-01-11T00:47:18.941Z,2.35
2019-01-11T00:49:48.450Z,2.58
2019-01-11T00:52:17.976Z,2.20
2019-01-11T00:54:47.384Z,2.70
2019-01-11T00:57:16.831Z,2.30
2019-01-11T00:59:46.370Z,5.55
2019-01-11T01:02:15.880Z,2.22
2019-01-11T01:04:45.395Z,2.30
2019-01-11T01:07:14.948Z,1.98
2019-01-11T01:09:44.353Z,2.10
2019-01-11T01:12:13.855Z,2.50
2019-01-11T01:14:43.261Z,2.20
2019-01-11T01:17:13.982Z,2.22
2019-01-11T01:19:43.454Z,2.15
2019-01-11T01:22:14.372Z,2.30
2019-01-11T01:24:43.852Z,2.35
2019-01-11T01:27:13.558Z,2.20
2019-01-11T01:29:43.036Z,2.40
2019-01-11T01:32:12.551Z,2.52
2019-01-11T01:34:42.030Z,2.00
2019-01-11T01:37:12.754Z,2.70
2019-01-11T01:39:42.232Z,2.00
2019-01-11T01:42:13.051Z,2.25
2019-01-11T01:44:42.527Z,2.10
2019-01-11T01:47:13.230Z,2.40
2019-01-11T01:49:42.893Z,2.10
2019-01-11T01:52:13.982Z,1.87
2019-01-11T01:54:43.591Z,2.17
2019-01-11T01:57:13.076Z,2.50
2019-01-11T01:59:42.583Z,2.12
2019-01-11T02:02:13.569Z,1.90
2019-01-11T02:04:43.079Z,2.47
2019-01-11T02:07:12.546Z,2.08
2019-01-11T02:09:43.051Z,2.12
2019-01-11T02:12:12.626Z,2.62
2019-01-11T02:14:42.710Z,2.45
2019-01-11T02:17:13.665Z,2.50
2019-01-11T02:19:43.185Z,2.22
2019-01-11T02:22:13.858Z,2.47
2019-01-11T02:24:43.413Z,5.40
2019-01-11T02:27:12.878Z,2.85
2019-01-11T02:29:42.470Z,2.10
2019-01-11T02:32:13.352Z,2.12
2019-01-11T02:34:42.860Z,2.30
2019-01-11T02:37:12.339Z,2.52
2019-01-11T02:39:41.843Z,3.00
2019-01-11T02:42:11.253Z,2.40
2019-01-11T02:44:40.759Z,3.02
2019-01-11T02:47:10.167Z,2.52
2019-01-11T02:49:40.315Z,2.15
2019-01-11T02:52:11.361Z,2.22
2019-01-11T02:54:40.871Z,2.70
2019-01-11T02:57:10.346Z,2.80
2019-01-11T02:59:39.855Z,2.60
2019-01-11T03:02:10.626Z,2.75
2019-01-11T03:04:40.139Z,2.75
2019-01-11T03:07:10.918Z,2.90
2019-01-11T03:09:40.445Z,2.90
2019-01-11T03:12:11.118Z,4.10
2019-01-11T03:14:40.565Z,2.77
2019-01-11T03:17:11.268Z,4.00
2019-01-11T03:19:47.575Z,3.15
2019-01-11T03:22:13.016Z,2.70
2019-01-11T03:24:42.421Z,3.75
2019-01-11T03:27:11.863Z,3.37
2019-01-11T03:29:41.269Z,3.35
2019-01-11T03:32:12.095Z,3.12
2019-01-11T03:34:43.118Z,3.15
2019-01-11T03:37:12.622Z,3.27
2019-01-11T03:39:42.104Z,4.42
2019-01-11T03:42:12.307Z,3.55
2019-01-11T03:44:41.711Z,3.15
2019-01-11T03:47:12.421Z,3.58
2019-01-11T03:49:41.818Z,3.30
2019-01-11T03:52:12.621Z,3.75
2019-01-11T03:54:42.027Z,3.90
2019-01-11T03:57:11.470Z,4.35
2019-01-11T03:59:40.881Z,3.58
2019-01-11T04:02:11.587Z,4.12
2019-01-11T04:04:41.060Z,4.17
2019-01-11T04:07:10.508Z,2.90
2019-01-11T04:09:39.976Z,3.85
2019-01-11T04:12:09.430Z,3.55
2019-01-11T04:14:38.847Z,3.92
2019-01-11T04:17:08.319Z,3.15
2019-01-11T04:19:37.830Z,2.95
2019-01-11T04:22:12.775Z,3.98
2019-01-11T04:24:49.664Z,3.22
2019-01-11T04:27:20.343Z,3.83
2019-01-11T04:29:49.851Z,3.87
2019-01-11T04:32:19.323Z,3.90
2019-01-11T04:34:48.839Z,3.67
2019-01-11T04:37:34.666Z,4.08
2019-01-11T04:40:06.312Z,3.45
2019-01-11T04:42:36.995Z,4.33
2019-01-11T04:45:08.076Z,4.20
2019-01-11T04:47:39.015Z,4.37
2019-01-11T04:50:11.371Z,4.92
2019-01-11T04:52:42.053Z,4.28
2019-01-11T04:55:11.565Z,4.95
2019-01-11T04:57:42.257Z,4.95
2019-01-11T05:00:17.436Z,5.20
2019-01-11T05:02:48.429Z,4.97
2019-01-11T05:05:18.047Z,5.05
2019-01-11T05:07:48.804Z,4.78
2019-01-11T05:10:18.380Z,4.30
2019-01-11T05:12:49.060Z,5.22
2019-01-11T05:15:18.619Z,5.05
2019-01-11T05:17:49.298Z,6.00
2019-01-11T05:20:18.809Z,6.08
2019-01-11T05:22:49.578Z,4.97
2019-01-11T05:25:19.015Z,5.90
2019-01-11T05:27:49.872Z,6.35
2019-01-11T05:30:19.308Z,5.87
2019-01-11T05:32:50.080Z,6.50
2019-01-11T05:35:19.523Z,6.50
2019-01-11T05:37:50.096Z,5.78
2019-01-11T05:40:19.536Z,7.08
2019-01-11T05:42:50.310Z,6.20
2019-01-11T05:45:19.818Z,6.28
2019-01-11T05:47:50.494Z,6.40
2019-01-11T05:50:23.835Z,7.58
2019-01-11T05:52:52.346Z,7.00
2019-01-11T05:55:39.630Z,6.72
2019-01-11T05:58:10.808Z,6.60
2019-01-11T06:00:41.544Z,6.20
2019-01-11T06:03:10.951Z,6.50
2019-01-11T06:05:40.450Z,7.30
2019-01-11T06:08:11.498Z,6.87
2019-01-11T06:10:42.306Z,6.83
2019-01-11T06:13:11.711Z,6.33
2019-01-11T06:15:42.589Z,6.58
2019-01-11T06:18:12.174Z,6.97
2019-01-11T06:20:41.606Z,7.10
2019-01-11T06:23:11.014Z,7.10
2019-01-11T06:25:40.528Z,7.72
2019-01-11T06:28:09.936Z,7.25
2019-01-11T06:30:40.706Z,7.78
2019-01-11T06:33:10.121Z,7.50
2019-01-11T06:35:40.842Z,7.72
2019-01-11T06:38:10.318Z,7.42
2019-01-11T06:40:41.040Z,8.25
2019-01-11T06:43:10.481Z,7.72
2019-01-11T06:45:41.259Z,7.67
2019-01-11T06:48:12.340Z,7.78
2019-01-11T06:50:41.828Z,7.37
2019-01-11T06:53:11.270Z,7.78
2019-01-11T06:55:40.744Z,8.35
2019-01-11T06:58:10.255Z,8.20
2019-01-11T07:00:40.932Z,7.95
2019-01-11T07:03:10.435Z,7.85
2019-01-11T07:05:41.211Z,7.85
2019-01-11T07:08:10.651Z,7.97
2019-01-11T07:10:40.056Z,8.28
2019-01-11T07:13:09.568Z,8.90
2019-01-11T07:15:39.117Z,8.53
2019-01-11T07:18:08.619Z,9.35
2019-01-11T07:20:42.899Z,9.50
2019-01-11T07:23:09.331Z,11.65
2019-01-11T07:25:38.799Z,9.45
2019-01-11T07:28:13.630Z,9.18
2019-01-11T07:30:42.383Z,8.93
2019-01-11T07:33:13.463Z,10.03
2019-01-11T07:35:47.483Z,11.05
2019-01-11T07:38:16.999Z,11.22
2019-01-11T07:40:46.482Z,10.10
2019-01-11T07:43:15.923Z,10.32
2019-01-11T07:45:45.403Z,11.60
2019-01-11T07:48:14.919Z,14.80
2019-01-11T07:50:49.312Z,11.22
2019-01-11T07:53:15.502Z,11.63
2019-01-11T07:55:44.987Z,12.85
2019-01-11T07:58:14.451Z,11.68
2019-01-11T08:00:45.706Z,13.32
2019-01-11T08:03:15.162Z,12.95
2019-01-11T08:05:45.867Z,13.72
2019-01-11T08:08:15.383Z,13.25
2019-01-11T08:10:46.107Z,13.72
2019-01-11T08:13:15.510Z,13.43
2019-01-11T08:15:46.432Z,14.45
2019-01-11T08:18:15.910Z,14.68
2019-01-11T08:20:45.355Z,14.35
2019-01-11T08:23:14.766Z,16.10
2019-01-11T08:25:44.390Z,14.73
2019-01-11T08:28:14.343Z,15.13
2019-01-11T08:30:43.880Z,15.93
2019-01-11T08:33:18.536Z,15.32
2019-01-11T08:35:45.735Z,16.02
2019-01-11T08:38:15.145Z,16.52
2019-01-11T08:40:44.605Z,16.02
2019-01-11T08:43:14.086Z,15.63
2019-01-11T08:45:44.904Z,15.45
2019-01-11T08:48:15.855Z,17.27
2019-01-11T08:50:47.242Z,15.65
2019-01-11T08:53:16.727Z,18.65
2019-01-11T08:55:46.324Z,15.00
2019-01-11T08:58:15.738Z,15.38
2019-01-11T09:00:45.456Z,17.50
2019-01-11T09:03:15.135Z,17.00
2019-01-11T09:05:46.046Z,16.52
2019-01-11T09:08:15.526Z,18.45
2019-01-11T09:10:45.055Z,16.82
2019-01-11T09:13:14.598Z,16.62
2019-01-11T09:15:45.418Z,18.40
2019-01-11T09:18:15.003Z,16.87
2019-01-11T09:20:45.786Z,19.12
2019-01-11T09:23:15.314Z,20.00
2019-01-11T09:25:44.721Z,19.17
2019-01-11T09:28:14.170Z,18.17
2019-01-11T09:30:45.149Z,18.75
2019-01-11T09:33:20.456Z,20.12
2019-01-11T09:35:45.749Z,18.70
2019-01-11T09:38:15.586Z,17.70
2019-01-11T09:40:47.675Z,17.75
2019-01-11T09:43:17.193Z,18.50
2019-01-11T09:45:46.671Z,18.52
2019-01-11T09:48:16.126Z,18.25
2019-01-11T09:50:47.083Z,17.57
2019-01-11T09:53:16.600Z,18.07
2019-01-11T09:55:46.110Z,17.27
2019-01-11T09:58:15.566Z,19.85
2019-01-11T10:00:45.050Z,18.05
2019-01-11T10:03:14.561Z,17.00
2019-01-11T10:05:45.347Z,18.92
2019-01-11T10:08:14.963Z,18.20
2019-01-11T10:10:45.946Z,17.60
2019-01-11T10:13:15.463Z,19.20
2019-01-11T10:15:44.961Z,21.05
2019-01-11T10:18:14.480Z,17.87
2019-01-11T10:20:45.196Z,16.80
2019-01-11T10:23:14.766Z,19.80
2019-01-11T10:25:44.260Z,17.90
2019-01-11T10:28:13.766Z,19.82
2019-01-11T10:30:43.326Z,23.57
2019-01-11T10:33:12.865Z,20.27
2019-01-11T10:35:43.714Z,21.57
2019-01-11T10:38:13.236Z,18.30
2019-01-11T10:40:44.118Z,18.80
2019-01-11T10:43:13.714Z,18.42
2019-01-11T10:45:44.503Z,20.65
2019-01-11T10:48:13.958Z,19.98
2019-01-11T10:50:44.734Z,23.92
2019-01-11T10:53:14.178Z,24.77
2019-01-11T10:55:43.675Z,30.15
2019-01-11T10:58:13.205Z,26.33
2019-01-11T11:00:44.067Z,23.70
2019-01-11T11:03:13.590Z,23.62
2019-01-11T11:05:44.410Z,22.25
2019-01-11T11:08:13.892Z,24.72
2019-01-11T11:10:43.414Z,22.90
2019-01-11T11:13:12.820Z,19.85
2019-01-11T11:15:45.106Z,19.40
2019-01-11T11:18:14.530Z,20.50
2019-01-11T11:20:44.040Z,20.50
2019-01-11T11:23:13.451Z,21.33
2019-01-11T11:25:42.971Z,19.20
2019-01-11T11:28:12.454Z,19.02
2019-01-11T11:30:43.276Z,23.27
2019-01-11T11:33:13.364Z,20.80
2019-01-11T11:35:44.252Z,21.37
2019-01-11T11:38:13.670Z,21.87
2019-01-11T11:40:43.191Z,19.27
2019-01-11T11:43:12.670Z,20.50
2019-01-11T11:45:42.189Z,20.12
2019-01-11T11:48:11.602Z,21.27
2019-01-11T11:50:41.122Z,19.00
2019-01-11T11:53:10.603Z,21.85
2019-01-11T11:55:40.122Z,20.95
2019-01-11T11:58:09.610Z,21.40
2019-01-11T12:00:39.124Z,20.68
2019-01-11T12:03:08.604Z,20.70
2019-01-11T12:05:38.113Z,22.35
2019-01-11T12:08:07.600Z,21.15
2019-01-11T12:10:38.415Z,23.98
2019-01-11T12:13:07.846Z,25.20
2019-01-11T12:15:37.344Z,25.00
2019-01-11T12:18:06.826Z,23.25
2019-01-11T12:20:38.946Z,23.22
2019-01-11T12:23:08.434Z,23.98
2019-01-11T12:25:37.920Z,21.93
2019-01-11T12:28:07.366Z,24.45
2019-01-11T12:30:36.859Z,22.67
2019-01-11T12:33:06.299Z,26.60
2019-01-11T12:38:03.921Z,25.12
2019-01-11T12:40:33.410Z,27.45
2019-01-11T12:43:02.851Z,25.37
2019-01-11T12:45:33.639Z,29.40
2019-01-11T12:48:03.160Z,26.35
2019-01-11T12:50:33.934Z,26.87
2019-01-11T12:53:03.457Z,28.55
2019-01-11T12:55:32.939Z,35.25
2019-01-11T12:58:02.392Z,29.92
2019-01-11T13:00:33.173Z,26.50
2019-01-11T13:03:02.762Z,28.47
2019-01-11T13:05:32.518Z,28.05
2019-01-11T13:08:02.036Z,27.77
2019-01-11T13:10:32.924Z,27.07
2019-01-11T13:13:04.147Z,27.07
2019-01-11T13:15:33.626Z,27.65
2019-01-11T13:18:03.144Z,29.75
2019-01-11T13:20:32.626Z,29.40
2019-01-11T13:23:02.139Z,29.90
2019-01-11T13:25:32.237Z,30.45
2019-01-11T13:28:02.047Z,30.72
2019-01-11T13:30:31.559Z,29.32
2019-01-11T13:33:01.080Z,29.30
2019-01-11T13:35:32.269Z,26.45
2019-01-11T13:38:01.781Z,27.82
2019-01-11T13:40:31.262Z,28.85
2019-01-11T13:43:00.715Z,25.88
2019-01-11T13:45:31.678Z,26.70
2019-01-11T13:48:01.186Z,23.90
2019-01-11T13:50:36.474Z,27.10
2019-01-11T13:53:07.227Z,26.70
2019-01-11T13:55:37.916Z,27.75
2019-01-11T13:58:07.367Z,35.28
2019-01-11T14:00:36.848Z,30.72
2019-01-11T14:03:06.334Z,26.95
2019-01-11T14:05:37.265Z,23.92
2019-01-11T14:08:06.675Z,25.27
2019-01-11T14:10:36.192Z,24.60
2019-01-11T14:13:05.674Z,24.82
2019-01-11T14:15:35.201Z,23.10
2019-01-11T14:18:04.867Z,25.60
2019-01-11T14:20:34.382Z,23.38
2019-01-11T14:23:03.862Z,25.20
2019-01-11T14:25:33.379Z,26.27
2019-01-11T14:28:02.796Z,27.25
2019-01-11T14:30:32.240Z,25.82
2019-01-11T14:33:01.722Z,26.85
2019-01-11T14:35:31.239Z,26.52
2019-01-11T14:38:00.656Z,22.80
2019-01-11T14:40:31.649Z,25.32
2019-01-11T14:43:01.134Z,20.77
2019-01-11T14:45:32.052Z,22.67
2019-01-11T14:48:01.462Z,23.45
2019-01-11T14:50:30.978Z,25.17
2019-01-11T14:53:00.395Z,26.15
2019-01-11T14:55:29.908Z,23.07
2019-01-11T14:57:59.386Z,23.60
2019-01-11T15:00:28.975Z,21.45
2019-01-11T15:02:58.464Z,25.92
2019-01-11T15:05:27.978Z,25.37
2019-01-11T15:07:57.391Z,23.10
2019-01-11T15:10:28.104Z,23.38
2019-01-11T15:12:57.581Z,25.60
2019-01-11T15:15:27.102Z,24.25
2019-01-11T15:17:56.581Z,21.17
2019-01-11T15:20:27.310Z,21.65
2019-01-11T15:22:56.722Z,24.80
2019-01-11T15:25:26.215Z,21.15
2019-01-11T15:27:55.661Z,19.98
2019-01-11T15:30:26.551Z,26.35
2019-01-11T15:32:56.007Z,23.67
2019-01-11T15:35:26.787Z,23.00
2019-01-11T15:37:56.232Z,23.25
2019-01-11T15:40:26.583Z,28.20
2019-01-11T15:42:56.100Z,20.97
2019-01-11T15:45:27.367Z,21.68
2019-01-11T15:47:56.812Z,24.00
2019-01-11T15:50:45.914Z,21.77
2019-01-11T15:53:15.428Z,23.70
2019-01-11T15:55:44.911Z,26.27
2019-01-11T15:58:14.727Z,20.35
2019-01-11T16:00:48.050Z,20.70
2019-01-11T16:03:17.640Z,22.42
2019-01-11T16:05:47.143Z,19.00
2019-01-11T16:08:16.645Z,20.02
2019-01-11T16:10:52.128Z,20.82
2019-01-11T16:13:21.713Z,21.20
2019-01-11T16:15:54.463Z,21.93
2019-01-11T16:18:24.013Z,20.90
2019-01-11T16:20:54.782Z,24.18
2019-01-11T16:23:24.226Z,19.87
2019-01-11T16:25:54.980Z,19.80
2019-01-11T16:28:24.498Z,19.52
2019-01-11T16:30:55.186Z,19.80
2019-01-11T16:33:24.701Z,19.82
2019-01-11T16:35:54.183Z,16.93
2019-01-11T16:38:23.698Z,19.40
2019-01-11T16:40:53.183Z,19.82
2019-01-11T16:43:22.696Z,19.90
2019-01-11T16:45:52.190Z,19.85
2019-01-11T16:48:41.130Z,19.77
2019-01-11T16:51:11.925Z,17.95
2019-01-11T16:53:41.438Z,20.70
2019-01-11T16:56:11.031Z,26.48
2019-01-11T16:58:40.560Z,17.15
2019-01-11T17:01:11.462Z,21.37
2019-01-11T17:03:41.077Z,24.18
2019-01-11T17:06:10.581Z,21.12
2019-01-11T17:08:40.078Z,17.30
2019-01-11T17:11:10.896Z,23.22
2019-01-11T17:13:41.585Z,19.57
2019-01-11T17:16:12.900Z,17.60
2019-01-11T17:18:42.383Z,17.70
2019-01-11T17:21:11.903Z,17.85
2019-01-11T17:23:41.394Z,20.95
2019-01-11T17:26:10.911Z,18.57
2019-01-11T17:28:40.398Z,19.80
2019-01-11T17:31:09.960Z,21.68
2019-01-11T17:33:39.420Z,19.90
2019-01-11T17:36:10.250Z,20.80
2019-01-11T17:38:39.742Z,42.50
2019-01-11T17:41:09.263Z,29.25
2019-01-11T17:43:38.751Z,25.48
2019-01-11T17:46:09.469Z,25.48
2019-01-11T17:48:39.174Z,18.50
2019-01-11T17:51:10.067Z,17.70
2019-01-11T17:53:39.547Z,20.72
2019-01-11T17:56:09.068Z,22.67
2019-01-11T17:58:38.814Z,18.62
2019-01-11T18:01:09.602Z,25.23
2019-01-11T18:03:39.093Z,19.90
2019-01-11T18:06:09.910Z,19.60
2019-01-11T18:08:39.388Z,22.10
2019-01-11T18:11:08.911Z,26.82
2019-01-11T18:13:38.395Z,59.30
2019-01-11T18:16:07.927Z,21.70
2019-01-11T18:18:37.407Z,36.60
2019-01-11T18:21:06.922Z,25.02
2019-01-11T18:23:36.407Z,21.75
2019-01-11T18:26:07.226Z,22.30
2019-01-11T18:28:36.714Z,22.00
2019-01-11T18:31:07.472Z,23.47
2019-01-11T18:33:36.956Z,19.60
2019-01-11T18:36:07.778Z,28.23
2019-01-11T18:38:37.293Z,53.45
2019-01-11T18:41:06.814Z,19.23
2019-01-11T18:43:36.342Z,21.75
2019-01-11T18:46:05.813Z,27.90
2019-01-11T18:48:35.340Z,18.65
2019-01-11T18:51:06.222Z,19.45
2019-01-11T18:53:35.747Z,19.85
2019-01-11T18:56:05.525Z,22.93
2019-01-11T18:58:35.274Z,20.27
2019-01-11T19:01:05.953Z,24.55
2019-01-11T19:03:35.498Z,19.10
2019-01-11T19:06:06.192Z,19.25
2019-01-11T19:08:35.713Z,18.98
2019-01-11T19:11:06.386Z,18.52
2019-01-11T19:13:35.906Z,23.35
2019-01-11T19:16:05.396Z,23.10
2019-01-11T19:18:34.907Z,19.10
2019-01-11T19:21:05.857Z,29.05
2019-01-11T19:23:35.379Z,26.30
2019-01-11T19:26:06.392Z,19.87
2019-01-11T19:28:35.912Z,19.48
2019-01-11T19:31:06.602Z,20.37
2019-01-11T19:33:36.120Z,19.32
2019-01-11T19:36:07.103Z,21.87
2019-01-11T19:38:36.636Z,21.48
2019-01-11T19:41:07.325Z,24.92
2019-01-11T19:43:37.264Z,21.73
2019-01-11T19:46:07.946Z,22.15
2019-01-11T19:48:37.611Z,21.50
2019-01-11T19:51:08.395Z,19.87
2019-01-11T19:53:37.848Z,23.30
2019-01-11T19:56:07.354Z,24.35
2019-01-11T19:58:36.838Z,23.40
2019-01-11T20:01:07.718Z,23.05
2019-01-11T20:03:37.239Z,44.40
2019-01-11T20:06:06.902Z,21.73
2019-01-11T20:08:36.369Z,63.33
2019-01-11T20:11:05.898Z,25.08
2019-01-11T20:13:35.379Z,24.10
2019-01-11T20:16:06.095Z,23.52
2019-01-11T20:18:35.507Z,24.52
2019-01-11T20:21:04.954Z,28.32
2019-01-11T20:23:35.706Z,24.55
2019-01-11T20:26:06.984Z,22.02
2019-01-11T20:28:36.659Z,22.15
2019-01-11T20:31:06.179Z,22.48
2019-01-11T20:33:35.671Z,39.63
2019-01-11T20:36:05.226Z,27.75
2019-01-11T20:38:34.874Z,33.90
2019-01-11T20:41:04.331Z,21.42
2019-01-11T20:43:33.814Z,22.55
2019-01-11T20:46:03.593Z,23.60
2019-01-11T20:48:33.254Z,29.52
2019-01-11T20:51:02.775Z,19.62
2019-01-11T20:53:32.258Z,31.87
2019-01-11T20:56:01.775Z,19.23
2019-01-11T20:58:31.256Z,17.90
2019-01-11T21:01:02.744Z,23.35
2019-01-11T21:03:32.225Z,30.92
2019-01-11T21:06:01.757Z,15.43
2019-01-11T21:08:31.438Z,15.85
2019-01-11T21:11:00.959Z,16.02
2019-01-11T21:13:30.451Z,33.38
2019-01-11T21:16:00.056Z,17.23
2019-01-11T21:18:29.562Z,83.20
2019-01-11T21:20:59.044Z,13.98
2019-01-11T21:23:28.501Z,16.48
2019-01-11T21:25:57.990Z,15.93
2019-01-11T21:28:27.430Z,17.05
2019-01-11T21:30:57.437Z,18.85
2019-01-11T21:33:27.177Z,19.02
2019-01-11T21:35:56.654Z,25.27
2019-01-11T21:38:26.105Z,19.25
2019-01-11T21:40:56.884Z,17.77
2019-01-11T21:43:26.331Z,17.17
2019-01-11T21:46:03.318Z,32.23
2019-01-11T21:48:28.264Z,18.75
2019-01-11T21:50:59.038Z,20.05
2019-01-11T21:53:28.496Z,26.57
2019-01-11T21:55:57.898Z,19.62
2019-01-11T21:58:27.347Z,18.80
2019-01-11T22:00:58.134Z,21.27
2019-01-11T22:03:27.666Z,19.67
2019-01-11T22:05:58.350Z,27.20
2019-01-11T22:08:27.803Z,20.82
2019-01-11T22:10:58.591Z,23.85
2019-01-11T22:13:28.100Z,29.37
2019-01-11T22:15:57.622Z,20.27
2019-01-11T22:18:27.140Z,22.42
2019-01-11T22:20:56.631Z,19.92
2019-01-11T22:23:26.093Z,18.85
2019-01-11T22:25:57.282Z,19.77
2019-01-11T22:28:26.722Z,22.32
2019-01-11T22:30:56.206Z,34.83
2019-01-11T22:33:25.664Z,35.20
2019-01-11T22:35:55.074Z,24.63
2019-01-11T22:38:24.558Z,23.02
2019-01-11T22:40:55.586Z,27.70
2019-01-11T22:43:25.079Z,24.50
2019-01-11T22:45:55.796Z,19.35
2019-01-11T22:48:25.221Z,23.75
2019-01-11T22:50:54.667Z,20.35
2019-01-11T22:53:24.148Z,18.75
2019-01-11T22:55:56.778Z,23.10
2019-01-11T22:58:26.264Z,22.05
2019-01-11T23:01:06.530Z,24.15
2019-01-11T23:03:38.762Z,24.05
2019-01-11T23:06:25.008Z,22.67
2019-01-11T23:08:54.489Z,20.32
2019-01-11T23:11:37.350Z,22.27
2019-01-11T23:14:06.840Z,20.00
2019-01-11T23:16:38.606Z,19.70
2019-01-11T23:19:08.093Z,20.25
2019-01-11T23:21:37.695Z,22.50
2019-01-11T23:24:07.187Z,19.50
2019-01-11T23:26:38.106Z,21.33
2019-01-11T23:29:07.604Z,21.95
2019-01-11T23:31:37.126Z,22.20
2019-01-11T23:34:06.743Z,24.95
2019-01-11T23:36:37.848Z,29.55
2019-01-11T23:39:09.018Z,25.17
2019-01-11T23:41:40.007Z,22.25
2019-01-11T23:44:11.040Z,22.37
2019-01-11T23:46:40.566Z,20.95
2019-01-11T23:49:09.979Z,20.80
2019-01-11T23:51:40.978Z,28.98
2019-01-11T23:54:10.463Z,22.80
2019-01-11T23:56:41.242Z,21.93
2019-01-11T23:59:10.696Z,21.10
